sensor_id;sensor_type;location;lat;lon;timestamp;P1;durP1;ratioP1;P2;durP2;ratioP2
2259;SDS011;333;48.800;9.530;2023-03-01T00:00:54;24.67;;;19.47;;
2259;SDS011;333;48.800;9.530;2023-03-01T00:03:27;28.47;;;17.60;;
2259;SDS011;333;48.800;9.530;2023-03-01T00:05:54;28.73;;;20.70;;
2259;SDS011;333;48.800;9.530;2023-03-01T00:08:21;24.17;;;19.00;;
2259;SDS011;333;48.800;9.530;2023-03-01T00:10:48;27.20;;;19.13;;
2259;SDS011;333;48.800;9.530;2023-03-01T00:13:17;26.30;;;20.27;;
2259;SDS011;333;48.800;9.530;2023-03-01T00:15:44;30.73;;;19.70;;
2259;SDS011;333;48.800;9.530;2023-03-01T00:18:11;28.07;;;20.60;;
2259;SDS011;333;48.800;9.530;2023-03-01T00:20:38;28.07;;;19.53;;
2259;SDS011;333;48.800;9.530;2023-03-01T00:23:06;27.67;;;19.73;;
2259;SDS011;333;48.800;9.530;2023-03-01T00:25:33;31.53;;;21.57;;
2259;SDS011;333;48.800;9.530;2023-03-01T00:28:00;31.23;;;20.50;;
2259;SDS011;333;48.800;9.530;2023-03-01T00:30:28;32.63;;;20.87;;
2259;SDS011;333;48.800;9.530;2023-03-01T00:32:55;29.67;;;20.73;;
2259;SDS011;333;48.800;9.530;2023-03-01T00:35:23;27.70;;;19.70;;
2259;SDS011;333;48.800;9.530;2023-03-01T00:37:50;31.57;;;20.70;;
2259;SDS011;333;48.800;9.530;2023-03-01T00:40:22;24.63;;;19.43;;
2259;SDS011;333;48.800;9.530;2023-03-01T00:42:50;29.67;;;20.90;;
2259;SDS011;333;48.800;9.530;2023-03-01T00:45:17;23.43;;;18.30;;
2259;SDS011;333;48.800;9.530;2023-03-01T00:47:45;30.90;;;20.97;;
2259;SDS011;333;48.800;9.530;2023-03-01T00:50:13;27.57;;;18.07;;
2259;SDS011;333;48.800;9.530;2023-03-01T00:52:40;26.53;;;19.53;;
2259;SDS011;333;48.800;9.530;2023-03-01T00:55:07;24.60;;;19.30;;
2259;SDS011;333;48.800;9.530;2023-03-01T00:57:34;25.90;;;18.73;;
2259;SDS011;333;48.800;9.530;2023-03-01T01:00:02;23.67;;;20.50;;
2259;SDS011;333;48.800;9.530;2023-03-01T01:02:29;27.30;;;19.47;;
2259;SDS011;333;48.800;9.530;2023-03-01T01:05:00;27.43;;;19.60;;
2259;SDS011;333;48.800;9.530;2023-03-01T01:07:27;31.50;;;21.43;;
2259;SDS011;333;48.800;9.530;2023-03-01T01:09:54;24.63;;;18.53;;
2259;SDS011;333;48.800;9.530;2023-03-01T01:12:21;27.77;;;19.63;;
2259;SDS011;333;48.800;9.530;2023-03-01T01:14:48;29.10;;;20.37;;
2259;SDS011;333;48.800;9.530;2023-03-01T01:17:15;29.90;;;19.30;;
2259;SDS011;333;48.800;9.530;2023-03-01T01:19:42;26.97;;;20.63;;
2259;SDS011;333;48.800;9.530;2023-03-01T01:22:11;24.73;;;19.57;;
2259;SDS011;333;48.800;9.530;2023-03-01T01:24:38;29.00;;;19.40;;
2259;SDS011;333;48.800;9.530;2023-03-01T01:27:05;25.47;;;18.63;;
2259;SDS011;333;48.800;9.530;2023-03-01T01:29:32;26.90;;;19.53;;
2259;SDS011;333;48.800;9.530;2023-03-01T01:32:00;28.13;;;18.13;;
2259;SDS011;333;48.800;9.530;2023-03-01T01:34:27;31.20;;;19.00;;
2259;SDS011;333;48.800;9.530;2023-03-01T01:36:54;32.00;;;20.03;;
2259;SDS011;333;48.800;9.530;2023-03-01T01:39:22;24.33;;;18.80;;
2259;SDS011;333;48.800;9.530;2023-03-01T01:41:50;26.90;;;20.27;;
2259;SDS011;333;48.800;9.530;2023-03-01T01:44:18;28.10;;;19.07;;
2259;SDS011;333;48.800;9.530;2023-03-01T01:46:46;25.37;;;20.00;;
2259;SDS011;333;48.800;9.530;2023-03-01T01:49:19;26.63;;;18.60;;
2259;SDS011;333;48.800;9.530;2023-03-01T01:51:49;22.10;;;17.50;;
2259;SDS011;333;48.800;9.530;2023-03-01T01:54:19;26.43;;;18.40;;
2259;SDS011;333;48.800;9.530;2023-03-01T01:56:49;27.33;;;18.27;;
2259;SDS011;333;48.800;9.530;2023-03-01T01:59:19;32.23;;;19.80;;
2259;SDS011;333;48.800;9.530;2023-03-01T02:01:49;24.10;;;17.40;;
2259;SDS011;333;48.800;9.530;2023-03-01T02:04:16;20.90;;;17.30;;
2259;SDS011;333;48.800;9.530;2023-03-01T02:06:45;26.07;;;18.03;;
2259;SDS011;333;48.800;9.530;2023-03-01T02:09:14;21.77;;;15.73;;
2259;SDS011;333;48.800;9.530;2023-03-01T02:11:42;24.43;;;16.30;;
2259;SDS011;333;48.800;9.530;2023-03-01T02:14:11;22.50;;;16.90;;
2259;SDS011;333;48.800;9.530;2023-03-01T02:16:38;25.50;;;18.40;;
2259;SDS011;333;48.800;9.530;2023-03-01T02:19:06;25.07;;;17.70;;
2259;SDS011;333;48.800;9.530;2023-03-01T02:21:37;21.23;;;16.10;;
2259;SDS011;333;48.800;9.530;2023-03-01T02:24:06;22.83;;;16.07;;
2259;SDS011;333;48.800;9.530;2023-03-01T02:26:40;21.10;;;16.40;;
2259;SDS011;333;48.800;9.530;2023-03-01T02:29:08;23.90;;;17.90;;
2259;SDS011;333;48.800;9.530;2023-03-01T02:31:36;21.20;;;16.73;;
2259;SDS011;333;48.800;9.530;2023-03-01T02:34:11;20.60;;;15.57;;
2259;SDS011;333;48.800;9.530;2023-03-01T02:36:39;21.03;;;17.27;;
2259;SDS011;333;48.800;9.530;2023-03-01T02:39:08;20.63;;;16.70;;
2259;SDS011;333;48.800;9.530;2023-03-01T02:41:39;21.37;;;16.93;;
2259;SDS011;333;48.800;9.530;2023-03-01T02:44:09;20.80;;;15.60;;
2259;SDS011;333;48.800;9.530;2023-03-01T02:46:41;23.43;;;16.27;;
2259;SDS011;333;48.800;9.530;2023-03-01T02:49:19;23.77;;;16.43;;
2259;SDS011;333;48.800;9.530;2023-03-01T02:51:48;21.70;;;16.10;;
2259;SDS011;333;48.800;9.530;2023-03-01T02:54:21;23.33;;;16.07;;
2259;SDS011;333;48.800;9.530;2023-03-01T02:56:50;21.07;;;16.33;;
2259;SDS011;333;48.800;9.530;2023-03-01T02:59:21;21.63;;;17.00;;
2259;SDS011;333;48.800;9.530;2023-03-01T03:01:49;23.90;;;15.00;;
2259;SDS011;333;48.800;9.530;2023-03-01T03:04:16;21.60;;;16.47;;
2259;SDS011;333;48.800;9.530;2023-03-01T03:06:46;22.17;;;17.40;;
2259;SDS011;333;48.800;9.530;2023-03-01T03:09:14;21.13;;;15.40;;
2259;SDS011;333;48.800;9.530;2023-03-01T03:11:41;21.60;;;17.47;;
2259;SDS011;333;48.800;9.530;2023-03-01T03:14:09;24.53;;;16.27;;
2259;SDS011;333;48.800;9.530;2023-03-01T03:16:40;25.80;;;15.10;;
2259;SDS011;333;48.800;9.530;2023-03-01T03:19:07;25.03;;;17.93;;
2259;SDS011;333;48.800;9.530;2023-03-01T03:21:34;24.73;;;16.80;;
2259;SDS011;333;48.800;9.530;2023-03-01T03:24:01;21.60;;;15.87;;
2259;SDS011;333;48.800;9.530;2023-03-01T03:26:29;21.60;;;16.40;;
2259;SDS011;333;48.800;9.530;2023-03-01T03:28:56;24.10;;;17.70;;
2259;SDS011;333;48.800;9.530;2023-03-01T03:31:23;22.93;;;18.00;;
2259;SDS011;333;48.800;9.530;2023-03-01T03:33:52;21.83;;;15.53;;
2259;SDS011;333;48.800;9.530;2023-03-01T03:36:20;21.97;;;16.73;;
2259;SDS011;333;48.800;9.530;2023-03-01T03:38:48;22.57;;;16.10;;
2259;SDS011;333;48.800;9.530;2023-03-01T03:41:15;21.53;;;16.50;;
2259;SDS011;333;48.800;9.530;2023-03-01T03:43:42;21.93;;;16.47;;
2259;SDS011;333;48.800;9.530;2023-03-01T03:46:10;23.83;;;15.60;;
2259;SDS011;333;48.800;9.530;2023-03-01T03:48:38;21.17;;;16.63;;
2259;SDS011;333;48.800;9.530;2023-03-01T03:51:09;23.00;;;16.53;;
2259;SDS011;333;48.800;9.530;2023-03-01T03:53:36;22.47;;;16.33;;
2259;SDS011;333;48.800;9.530;2023-03-01T03:56:04;19.70;;;16.00;;
2259;SDS011;333;48.800;9.530;2023-03-01T03:58:31;28.33;;;17.23;;
2259;SDS011;333;48.800;9.530;2023-03-01T04:00:58;19.27;;;15.10;;
2259;SDS011;333;48.800;9.530;2023-03-01T04:03:27;23.23;;;16.77;;
2259;SDS011;333;48.800;9.530;2023-03-01T04:05:56;23.37;;;16.40;;
2259;SDS011;333;48.800;9.530;2023-03-01T04:08:25;21.37;;;15.30;;
2259;SDS011;333;48.800;9.530;2023-03-01T04:10:56;21.93;;;16.50;;
2259;SDS011;333;48.800;9.530;2023-03-01T04:13:24;22.20;;;16.80;;
2259;SDS011;333;48.800;9.530;2023-03-01T04:15:51;20.20;;;15.70;;
2259;SDS011;333;48.800;9.530;2023-03-01T04:18:19;24.20;;;16.50;;
2259;SDS011;333;48.800;9.530;2023-03-01T04:20:47;23.07;;;18.60;;
2259;SDS011;333;48.800;9.530;2023-03-01T04:23:15;21.27;;;16.03;;
2259;SDS011;333;48.800;9.530;2023-03-01T04:25:47;19.87;;;17.53;;
2259;SDS011;333;48.800;9.530;2023-03-01T04:28:18;24.00;;;17.27;;
2259;SDS011;333;48.800;9.530;2023-03-01T04:30:45;23.80;;;17.43;;
2259;SDS011;333;48.800;9.530;2023-03-01T04:33:13;23.10;;;17.20;;
2259;SDS011;333;48.800;9.530;2023-03-01T04:35:40;21.23;;;16.10;;
2259;SDS011;333;48.800;9.530;2023-03-01T04:38:07;23.37;;;16.93;;
2259;SDS011;333;48.800;9.530;2023-03-01T04:40:35;24.60;;;16.97;;
2259;SDS011;333;48.800;9.530;2023-03-01T04:43:03;21.10;;;17.77;;
2259;SDS011;333;48.800;9.530;2023-03-01T04:45:31;20.57;;;16.37;;
2259;SDS011;333;48.800;9.530;2023-03-01T04:47:59;26.57;;;17.73;;
2259;SDS011;333;48.800;9.530;2023-03-01T04:50:26;29.23;;;19.93;;
2259;SDS011;333;48.800;9.530;2023-03-01T04:52:54;24.10;;;17.40;;
2259;SDS011;333;48.800;9.530;2023-03-01T04:55:23;22.93;;;16.60;;
2259;SDS011;333;48.800;9.530;2023-03-01T04:57:50;21.47;;;15.80;;
2259;SDS011;333;48.800;9.530;2023-03-01T05:00:19;21.43;;;18.17;;
2259;SDS011;333;48.800;9.530;2023-03-01T05:02:48;22.10;;;17.63;;
2259;SDS011;333;48.800;9.530;2023-03-01T05:05:18;20.70;;;16.43;;
2259;SDS011;333;48.800;9.530;2023-03-01T05:07:45;22.70;;;16.73;;
2259;SDS011;333;48.800;9.530;2023-03-01T05:10:13;25.60;;;17.57;;
2259;SDS011;333;48.800;9.530;2023-03-01T05:12:40;24.80;;;18.43;;
2259;SDS011;333;48.800;9.530;2023-03-01T05:15:07;21.43;;;16.83;;
2259;SDS011;333;48.800;9.530;2023-03-01T05:17:36;20.60;;;15.20;;
2259;SDS011;333;48.800;9.530;2023-03-01T05:20:03;25.23;;;17.30;;
2259;SDS011;333;48.800;9.530;2023-03-01T05:22:33;21.20;;;16.97;;
2259;SDS011;333;48.800;9.530;2023-03-01T05:25:01;21.63;;;15.27;;
2259;SDS011;333;48.800;9.530;2023-03-01T05:27:28;21.83;;;17.27;;
2259;SDS011;333;48.800;9.530;2023-03-01T05:29:55;21.80;;;16.10;;
2259;SDS011;333;48.800;9.530;2023-03-01T05:32:22;23.50;;;17.37;;
2259;SDS011;333;48.800;9.530;2023-03-01T05:34:51;24.57;;;17.00;;
2259;SDS011;333;48.800;9.530;2023-03-01T05:37:20;22.33;;;17.30;;
2259;SDS011;333;48.800;9.530;2023-03-01T05:39:47;23.60;;;17.03;;
2259;SDS011;333;48.800;9.530;2023-03-01T05:42:15;25.10;;;19.40;;
2259;SDS011;333;48.800;9.530;2023-03-01T05:44:43;23.90;;;17.97;;
2259;SDS011;333;48.800;9.530;2023-03-01T05:47:10;21.60;;;17.00;;
2259;SDS011;333;48.800;9.530;2023-03-01T05:49:37;24.17;;;18.87;;
2259;SDS011;333;48.800;9.530;2023-03-01T05:52:05;25.00;;;19.40;;
2259;SDS011;333;48.800;9.530;2023-03-01T05:54:33;24.07;;;17.13;;
2259;SDS011;333;48.800;9.530;2023-03-01T05:57:01;23.00;;;16.10;;
2259;SDS011;333;48.800;9.530;2023-03-01T05:59:28;31.27;;;18.50;;
2259;SDS011;333;48.800;9.530;2023-03-01T06:01:55;21.57;;;16.90;;
2259;SDS011;333;48.800;9.530;2023-03-01T06:04:22;22.07;;;17.50;;
2259;SDS011;333;48.800;9.530;2023-03-01T06:06:49;25.40;;;17.80;;
2259;SDS011;333;48.800;9.530;2023-03-01T06:09:18;25.67;;;17.50;;
2259;SDS011;333;48.800;9.530;2023-03-01T06:11:45;30.53;;;17.93;;
2259;SDS011;333;48.800;9.530;2023-03-01T06:14:12;24.70;;;17.80;;
2259;SDS011;333;48.800;9.530;2023-03-01T06:16:39;22.50;;;17.00;;
2259;SDS011;333;48.800;9.530;2023-03-01T06:19:07;23.23;;;17.67;;
2259;SDS011;333;48.800;9.530;2023-03-01T06:21:34;22.80;;;17.90;;
2259;SDS011;333;48.800;9.530;2023-03-01T06:24:01;30.67;;;20.10;;
2259;SDS011;333;48.800;9.530;2023-03-01T06:26:29;23.87;;;18.37;;
2259;SDS011;333;48.800;9.530;2023-03-01T06:28:56;26.20;;;19.50;;
2259;SDS011;333;48.800;9.530;2023-03-01T06:31:24;26.77;;;18.73;;
2259;SDS011;333;48.800;9.530;2023-03-01T06:33:51;28.13;;;19.80;;
2259;SDS011;333;48.800;9.530;2023-03-01T06:36:18;25.00;;;19.37;;
2259;SDS011;333;48.800;9.530;2023-03-01T06:38:46;23.73;;;17.90;;
2259;SDS011;333;48.800;9.530;2023-03-01T06:41:14;31.70;;;22.03;;
2259;SDS011;333;48.800;9.530;2023-03-01T06:43:42;26.00;;;19.33;;
2259;SDS011;333;48.800;9.530;2023-03-01T06:46:09;27.63;;;20.53;;
2259;SDS011;333;48.800;9.530;2023-03-01T06:48:36;28.63;;;20.17;;
2259;SDS011;333;48.800;9.530;2023-03-01T06:51:04;25.33;;;18.97;;
2259;SDS011;333;48.800;9.530;2023-03-01T06:53:31;26.53;;;20.10;;
2259;SDS011;333;48.800;9.530;2023-03-01T06:55:58;33.80;;;20.63;;
2259;SDS011;333;48.800;9.530;2023-03-01T06:58:25;28.30;;;21.03;;
2259;SDS011;333;48.800;9.530;2023-03-01T07:00:54;33.47;;;22.47;;
2259;SDS011;333;48.800;9.530;2023-03-01T07:03:21;30.60;;;21.70;;
2259;SDS011;333;48.800;9.530;2023-03-01T07:05:49;29.60;;;22.43;;
2259;SDS011;333;48.800;9.530;2023-03-01T07:08:17;26.23;;;20.80;;
2259;SDS011;333;48.800;9.530;2023-03-01T07:10:44;25.27;;;19.53;;
2259;SDS011;333;48.800;9.530;2023-03-01T07:13:11;30.47;;;20.97;;
2259;SDS011;333;48.800;9.530;2023-03-01T07:15:39;28.10;;;18.30;;
2259;SDS011;333;48.800;9.530;2023-03-01T07:18:08;25.50;;;18.27;;
2259;SDS011;333;48.800;9.530;2023-03-01T07:20:35;27.00;;;18.63;;
2259;SDS011;333;48.800;9.530;2023-03-01T07:23:03;31.43;;;20.50;;
2259;SDS011;333;48.800;9.530;2023-03-01T07:25:32;26.97;;;18.87;;
2259;SDS011;333;48.800;9.530;2023-03-01T07:27:59;31.30;;;19.57;;
2259;SDS011;333;48.800;9.530;2023-03-01T07:30:26;26.67;;;19.47;;
2259;SDS011;333;48.800;9.530;2023-03-01T07:32:53;28.33;;;18.50;;
2259;SDS011;333;48.800;9.530;2023-03-01T07:35:22;26.67;;;17.73;;
2259;SDS011;333;48.800;9.530;2023-03-01T07:37:50;22.03;;;16.17;;
2259;SDS011;333;48.800;9.530;2023-03-01T07:40:17;23.97;;;19.43;;
2259;SDS011;333;48.800;9.530;2023-03-01T07:42:44;25.40;;;18.77;;
2259;SDS011;333;48.800;9.530;2023-03-01T07:45:11;21.83;;;17.00;;
2259;SDS011;333;48.800;9.530;2023-03-01T07:47:39;22.33;;;16.63;;
2259;SDS011;333;48.800;9.530;2023-03-01T07:50:06;26.67;;;19.60;;
2259;SDS011;333;48.800;9.530;2023-03-01T07:52:35;20.83;;;17.10;;
2259;SDS011;333;48.800;9.530;2023-03-01T07:55:02;25.23;;;17.07;;
2259;SDS011;333;48.800;9.530;2023-03-01T07:57:29;24.50;;;16.50;;
2259;SDS011;333;48.800;9.530;2023-03-01T07:59:57;27.80;;;19.10;;
2259;SDS011;333;48.800;9.530;2023-03-01T08:02:24;22.90;;;19.73;;
2259;SDS011;333;48.800;9.530;2023-03-01T08:04:51;29.00;;;18.20;;
2259;SDS011;333;48.800;9.530;2023-03-01T08:07:18;23.00;;;16.93;;
2259;SDS011;333;48.800;9.530;2023-03-01T08:09:47;22.03;;;17.57;;
2259;SDS011;333;48.800;9.530;2023-03-01T08:12:14;28.17;;;18.70;;
2259;SDS011;333;48.800;9.530;2023-03-01T08:14:41;25.00;;;17.97;;
2259;SDS011;333;48.800;9.530;2023-03-01T08:17:09;23.40;;;20.03;;
2259;SDS011;333;48.800;9.530;2023-03-01T08:19:36;27.73;;;17.93;;
2259;SDS011;333;48.800;9.530;2023-03-01T08:22:03;28.10;;;18.50;;
2259;SDS011;333;48.800;9.530;2023-03-01T08:24:30;24.90;;;17.63;;
2259;SDS011;333;48.800;9.530;2023-03-01T08:26:59;23.30;;;18.30;;
2259;SDS011;333;48.800;9.530;2023-03-01T08:29:27;26.43;;;19.27;;
2259;SDS011;333;48.800;9.530;2023-03-01T08:31:54;23.30;;;16.60;;
2259;SDS011;333;48.800;9.530;2023-03-01T08:34:22;22.90;;;16.90;;
2259;SDS011;333;48.800;9.530;2023-03-01T08:36:49;21.23;;;15.73;;
2259;SDS011;333;48.800;9.530;2023-03-01T08:39:17;26.80;;;17.27;;
2259;SDS011;333;48.800;9.530;2023-03-01T08:41:45;24.63;;;18.27;;
2259;SDS011;333;48.800;9.530;2023-03-01T08:44:14;21.73;;;17.33;;
2259;SDS011;333;48.800;9.530;2023-03-01T08:46:42;22.13;;;17.80;;
2259;SDS011;333;48.800;9.530;2023-03-01T08:49:11;22.40;;;17.17;;
2259;SDS011;333;48.800;9.530;2023-03-01T08:51:38;25.67;;;18.30;;
2259;SDS011;333;48.800;9.530;2023-03-01T08:54:06;27.30;;;18.10;;
2259;SDS011;333;48.800;9.530;2023-03-01T08:56:36;24.53;;;17.40;;
2259;SDS011;333;48.800;9.530;2023-03-01T08:59:03;21.63;;;16.43;;
2259;SDS011;333;48.800;9.530;2023-03-01T09:01:32;21.47;;;16.50;;
2259;SDS011;333;48.800;9.530;2023-03-01T09:03:59;24.77;;;17.80;;
2259;SDS011;333;48.800;9.530;2023-03-01T09:06:26;23.70;;;17.53;;
2259;SDS011;333;48.800;9.530;2023-03-01T09:08:58;24.77;;;15.87;;
2259;SDS011;333;48.800;9.530;2023-03-01T09:11:25;23.67;;;17.60;;
2259;SDS011;333;48.800;9.530;2023-03-01T09:13:52;24.37;;;17.17;;
2259;SDS011;333;48.800;9.530;2023-03-01T09:16:20;21.83;;;16.67;;
2259;SDS011;333;48.800;9.530;2023-03-01T09:18:50;25.03;;;17.57;;
2259;SDS011;333;48.800;9.530;2023-03-01T09:21:18;23.07;;;17.00;;
2259;SDS011;333;48.800;9.530;2023-03-01T09:23:46;22.20;;;16.13;;
2259;SDS011;333;48.800;9.530;2023-03-01T09:26:14;21.80;;;16.40;;
2259;SDS011;333;48.800;9.530;2023-03-01T09:28:44;26.83;;;18.57;;
2259;SDS011;333;48.800;9.530;2023-03-01T09:31:11;20.10;;;15.70;;
2259;SDS011;333;48.800;9.530;2023-03-01T09:33:39;25.50;;;16.33;;
2259;SDS011;333;48.800;9.530;2023-03-01T09:36:10;23.33;;;17.27;;
2259;SDS011;333;48.800;9.530;2023-03-01T09:38:38;21.60;;;15.90;;
2259;SDS011;333;48.800;9.530;2023-03-01T09:41:09;22.83;;;17.13;;
2259;SDS011;333;48.800;9.530;2023-03-01T09:43:39;18.70;;;15.70;;
2259;SDS011;333;48.800;9.530;2023-03-01T09:46:10;24.57;;;16.73;;
2259;SDS011;333;48.800;9.530;2023-03-01T09:48:41;22.83;;;17.80;;
2259;SDS011;333;48.800;9.530;2023-03-01T09:51:12;20.80;;;16.90;;
2259;SDS011;333;48.800;9.530;2023-03-01T09:53:41;19.53;;;17.37;;
2259;SDS011;333;48.800;9.530;2023-03-01T09:56:11;27.07;;;17.30;;
2259;SDS011;333;48.800;9.530;2023-03-01T09:58:41;21.23;;;16.07;;
2259;SDS011;333;48.800;9.530;2023-03-01T10:04:02;24.37;;;17.47;;
2259;SDS011;333;48.800;9.530;2023-03-01T10:06:33;19.50;;;14.50;;
2259;SDS011;333;48.800;9.530;2023-03-01T10:09:00;21.27;;;14.97;;
2259;SDS011;333;48.800;9.530;2023-03-01T10:11:30;23.47;;;17.10;;
2259;SDS011;333;48.800;9.530;2023-03-01T10:13:58;21.50;;;15.57;;
2259;SDS011;333;48.800;9.530;2023-03-01T10:16:32;19.90;;;16.57;;
2259;SDS011;333;48.800;9.530;2023-03-01T10:19:02;24.93;;;17.87;;
2259;SDS011;333;48.800;9.530;2023-03-01T10:21:34;21.13;;;16.23;;
2259;SDS011;333;48.800;9.530;2023-03-01T10:24:08;18.40;;;14.97;;
2259;SDS011;333;48.800;9.530;2023-03-01T10:26:44;22.30;;;15.93;;
2259;SDS011;333;48.800;9.530;2023-03-01T10:29:14;21.80;;;15.97;;
2259;SDS011;333;48.800;9.530;2023-03-01T10:31:42;17.07;;;14.50;;
2259;SDS011;333;48.800;9.530;2023-03-01T10:34:10;19.17;;;15.93;;
2259;SDS011;333;48.800;9.530;2023-03-01T10:36:40;24.17;;;16.83;;
2259;SDS011;333;48.800;9.530;2023-03-01T10:39:12;19.53;;;14.73;;
2259;SDS011;333;48.800;9.530;2023-03-01T10:41:44;18.93;;;15.23;;
2259;SDS011;333;48.800;9.530;2023-03-01T10:44:34;20.10;;;15.60;;
2259;SDS011;333;48.800;9.530;2023-03-01T10:47:02;21.77;;;15.03;;
2259;SDS011;333;48.800;9.530;2023-03-01T10:49:29;17.53;;;14.00;;
2259;SDS011;333;48.800;9.530;2023-03-01T10:51:58;18.60;;;15.77;;
2259;SDS011;333;48.800;9.530;2023-03-01T10:54:38;16.43;;;14.27;;
2259;SDS011;333;48.800;9.530;2023-03-01T10:57:09;20.57;;;14.70;;
2259;SDS011;333;48.800;9.530;2023-03-01T10:59:51;21.23;;;12.80;;
2259;SDS011;333;48.800;9.530;2023-03-01T11:02:28;20.37;;;14.33;;
2259;SDS011;333;48.800;9.530;2023-03-01T11:04:58;16.20;;;14.03;;
2259;SDS011;333;48.800;9.530;2023-03-01T11:07:27;16.10;;;14.30;;
2259;SDS011;333;48.800;9.530;2023-03-01T11:09:54;21.70;;;14.30;;
2259;SDS011;333;48.800;9.530;2023-03-01T11:12:22;18.63;;;15.10;;
2259;SDS011;333;48.800;9.530;2023-03-01T11:14:49;16.77;;;14.30;;
2259;SDS011;333;48.800;9.530;2023-03-01T11:17:18;19.00;;;14.77;;
2259;SDS011;333;48.800;9.530;2023-03-01T11:19:59;16.80;;;14.93;;
2259;SDS011;333;48.800;9.530;2023-03-01T11:22:28;17.50;;;14.43;;
2259;SDS011;333;48.800;9.530;2023-03-01T11:24:55;18.40;;;15.53;;
2259;SDS011;333;48.800;9.530;2023-03-01T11:27:24;16.73;;;13.33;;
2259;SDS011;333;48.800;9.530;2023-03-01T11:29:52;15.87;;;13.47;;
2259;SDS011;333;48.800;9.530;2023-03-01T11:32:20;17.77;;;14.23;;
2259;SDS011;333;48.800;9.530;2023-03-01T11:34:50;18.63;;;14.47;;
2259;SDS011;333;48.800;9.530;2023-03-01T11:37:21;18.27;;;14.27;;
2259;SDS011;333;48.800;9.530;2023-03-01T11:39:53;20.20;;;16.53;;
2259;SDS011;333;48.800;9.530;2023-03-01T11:42:24;22.27;;;14.93;;
2259;SDS011;333;48.800;9.530;2023-03-01T11:44:52;17.10;;;14.07;;
2259;SDS011;333;48.800;9.530;2023-03-01T11:47:27;22.30;;;16.30;;
2259;SDS011;333;48.800;9.530;2023-03-01T11:50:01;20.07;;;16.33;;
2259;SDS011;333;48.800;9.530;2023-03-01T11:52:36;19.87;;;16.10;;
2259;SDS011;333;48.800;9.530;2023-03-01T11:55:14;21.07;;;16.47;;
2259;SDS011;333;48.800;9.530;2023-03-01T11:57:47;17.93;;;15.30;;
2259;SDS011;333;48.800;9.530;2023-03-01T12:00:24;20.60;;;16.27;;
2259;SDS011;333;48.800;9.530;2023-03-01T12:03:02;16.30;;;13.70;;
2259;SDS011;333;48.800;9.530;2023-03-01T12:05:44;16.07;;;14.43;;
2259;SDS011;333;48.800;9.530;2023-03-01T12:08:16;18.53;;;14.90;;
2259;SDS011;333;48.800;9.530;2023-03-01T12:10:47;18.93;;;15.80;;
2259;SDS011;333;48.800;9.530;2023-03-01T12:13:36;18.33;;;15.57;;
2259;SDS011;333;48.800;9.530;2023-03-01T12:16:13;18.33;;;14.80;;
2259;SDS011;333;48.800;9.530;2023-03-01T12:18:48;17.60;;;15.00;;
2259;SDS011;333;48.800;9.530;2023-03-01T12:21:23;22.90;;;16.97;;
2259;SDS011;333;48.800;9.530;2023-03-01T12:24:02;18.73;;;15.63;;
2259;SDS011;333;48.800;9.530;2023-03-01T12:26:33;16.67;;;14.20;;
2259;SDS011;333;48.800;9.530;2023-03-01T12:29:02;16.63;;;14.80;;
2259;SDS011;333;48.800;9.530;2023-03-01T12:31:40;18.73;;;14.13;;
2259;SDS011;333;48.800;9.530;2023-03-01T12:34:12;17.23;;;14.40;;
2259;SDS011;333;48.800;9.530;2023-03-01T12:36:50;17.67;;;14.23;;
2259;SDS011;333;48.800;9.530;2023-03-01T12:39:27;22.83;;;16.50;;
2259;SDS011;333;48.800;9.530;2023-03-01T12:42:01;17.43;;;14.00;;
2259;SDS011;333;48.800;9.530;2023-03-01T12:47:14;17.20;;;14.60;;
2259;SDS011;333;48.800;9.530;2023-03-01T12:49:46;18.03;;;14.20;;
2259;SDS011;333;48.800;9.530;2023-03-01T12:52:16;20.10;;;14.93;;
2259;SDS011;333;48.800;9.530;2023-03-01T12:54:44;19.83;;;15.47;;
2259;SDS011;333;48.800;9.530;2023-03-01T12:57:14;15.13;;;13.53;;
2259;SDS011;333;48.800;9.530;2023-03-01T12:59:46;14.40;;;12.57;;
2259;SDS011;333;48.800;9.530;2023-03-01T13:02:20;15.13;;;13.27;;
2259;SDS011;333;48.800;9.530;2023-03-01T13:04:53;19.20;;;14.67;;
2259;SDS011;333;48.800;9.530;2023-03-01T13:07:25;14.87;;;13.17;;
2259;SDS011;333;48.800;9.530;2023-03-01T13:09:57;17.00;;;12.50;;
2259;SDS011;333;48.800;9.530;2023-03-01T13:12:43;16.03;;;13.60;;
2259;SDS011;333;48.800;9.530;2023-03-01T13:15:24;20.30;;;13.27;;
2259;SDS011;333;48.800;9.530;2023-03-01T13:17:52;15.03;;;13.40;;
2259;SDS011;333;48.800;9.530;2023-03-01T13:20:20;14.70;;;12.80;;
2259;SDS011;333;48.800;9.530;2023-03-01T13:22:47;13.93;;;12.50;;
2259;SDS011;333;48.800;9.530;2023-03-01T13:25:26;14.70;;;12.30;;
2259;SDS011;333;48.800;9.530;2023-03-01T13:27:56;15.13;;;13.63;;
2259;SDS011;333;48.800;9.530;2023-03-01T13:30:43;14.20;;;12.40;;
2259;SDS011;333;48.800;9.530;2023-03-01T13:35:56;13.53;;;11.67;;
2259;SDS011;333;48.800;9.530;2023-03-01T13:38:36;16.20;;;14.20;;
2259;SDS011;333;48.800;9.530;2023-03-01T13:41:04;17.37;;;12.50;;
2259;SDS011;333;48.800;9.530;2023-03-01T13:43:33;15.00;;;13.27;;
2259;SDS011;333;48.800;9.530;2023-03-01T13:46:02;12.90;;;11.37;;
2259;SDS011;333;48.800;9.530;2023-03-01T13:48:37;18.50;;;13.33;;
2259;SDS011;333;48.800;9.530;2023-03-01T13:51:05;16.63;;;14.07;;
2259;SDS011;333;48.800;9.530;2023-03-01T13:53:33;15.27;;;13.07;;
2259;SDS011;333;48.800;9.530;2023-03-01T13:56:03;15.33;;;13.73;;
2259;SDS011;333;48.800;9.530;2023-03-01T13:58:43;14.70;;;13.13;;
2259;SDS011;333;48.800;9.530;2023-03-01T14:01:18;15.17;;;13.63;;
2259;SDS011;333;48.800;9.530;2023-03-01T14:03:47;19.40;;;13.23;;
2259;SDS011;333;48.800;9.530;2023-03-01T14:06:15;16.63;;;14.07;;
2259;SDS011;333;48.800;9.530;2023-03-01T14:08:43;16.03;;;13.37;;
2259;SDS011;333;48.800;9.530;2023-03-01T14:11:21;14.60;;;12.20;;
2259;SDS011;333;48.800;9.530;2023-03-01T14:13:58;16.73;;;14.27;;
2259;SDS011;333;48.800;9.530;2023-03-01T14:16:31;18.47;;;15.40;;
2259;SDS011;333;48.800;9.530;2023-03-01T14:19:04;16.07;;;13.93;;
2259;SDS011;333;48.800;9.530;2023-03-01T14:21:34;17.83;;;14.17;;
2259;SDS011;333;48.800;9.530;2023-03-01T14:24:01;18.03;;;14.10;;
2259;SDS011;333;48.800;9.530;2023-03-01T14:26:28;15.83;;;13.13;;
2259;SDS011;333;48.800;9.530;2023-03-01T14:28:59;18.20;;;14.33;;
2259;SDS011;333;48.800;9.530;2023-03-01T14:31:36;18.57;;;15.00;;
2259;SDS011;333;48.800;9.530;2023-03-01T14:34:04;17.23;;;14.00;;
2259;SDS011;333;48.800;9.530;2023-03-01T14:36:32;16.30;;;13.93;;
2259;SDS011;333;48.800;9.530;2023-03-01T14:38:59;15.27;;;13.40;;
2259;SDS011;333;48.800;9.530;2023-03-01T14:41:30;15.97;;;13.20;;
2259;SDS011;333;48.800;9.530;2023-03-01T14:44:01;17.17;;;12.83;;
2259;SDS011;333;48.800;9.530;2023-03-01T14:46:29;16.47;;;14.07;;
2259;SDS011;333;48.800;9.530;2023-03-01T14:49:00;15.93;;;14.17;;
2259;SDS011;333;48.800;9.530;2023-03-01T14:51:28;17.03;;;14.87;;
2259;SDS011;333;48.800;9.530;2023-03-01T14:53:55;18.03;;;13.20;;
2259;SDS011;333;48.800;9.530;2023-03-01T14:56:23;15.40;;;13.20;;
2259;SDS011;333;48.800;9.530;2023-03-01T14:58:53;14.30;;;12.90;;
2259;SDS011;333;48.800;9.530;2023-03-01T15:01:26;20.77;;;14.80;;
2259;SDS011;333;48.800;9.530;2023-03-01T15:03:53;17.13;;;14.03;;
2259;SDS011;333;48.800;9.530;2023-03-01T15:06:21;17.27;;;13.53;;
2259;SDS011;333;48.800;9.530;2023-03-01T15:08:50;15.37;;;13.77;;
2259;SDS011;333;48.800;9.530;2023-03-01T15:11:20;16.67;;;14.90;;
2259;SDS011;333;48.800;9.530;2023-03-01T15:13:49;15.47;;;13.87;;
2259;SDS011;333;48.800;9.530;2023-03-01T15:16:17;16.13;;;14.20;;
2259;SDS011;333;48.800;9.530;2023-03-01T15:18:46;17.93;;;14.73;;
2259;SDS011;333;48.800;9.530;2023-03-01T15:21:16;14.57;;;13.03;;